createdAt,value
2018-07-22T00:01:28.298Z,5.37
2018-07-22T00:04:32.592Z,5.20
2018-07-22T00:07:36.938Z,5.40
2018-07-22T00:10:41.235Z,4.73
2018-07-22T00:13:45.607Z,4.67
2018-07-22T00:16:50.181Z,4.67
2018-07-22T00:19:55.094Z,4.80
2018-07-22T00:23:00.137Z,5.13
2018-07-22T00:26:04.746Z,4.63
2018-07-22T00:29:09.096Z,4.55
2018-07-22T00:32:13.325Z,4.13
2018-07-22T00:35:17.805Z,4.10
2018-07-22T00:38:22.415Z,4.27
2018-07-22T00:41:26.680Z,4.50
2018-07-22T00:44:31.032Z,4.20
2018-07-22T00:47:35.757Z,4.13
2018-07-22T00:50:40.011Z,4.00
2018-07-22T00:53:44.284Z,4.90
2018-07-22T00:56:49.621Z,4.60
2018-07-22T00:59:54.023Z,4.63
2018-07-22T01:02:58.277Z,4.73
2018-07-22T01:06:02.766Z,5.37
2018-07-22T01:09:10.242Z,5.00
2018-07-22T01:12:14.525Z,4.27
2018-07-22T01:15:19.034Z,3.90
2018-07-22T01:18:23.344Z,4.10
2018-07-22T01:21:27.900Z,4.03
2018-07-22T01:24:32.177Z,3.73
2018-07-22T01:27:36.569Z,3.27
2018-07-22T01:30:40.920Z,4.37
2018-07-22T01:33:45.552Z,3.27
2018-07-22T01:36:49.933Z,3.20
2018-07-22T01:39:54.223Z,3.47
2018-07-22T01:42:58.480Z,3.60
2018-07-22T01:46:03.861Z,2.60
2018-07-22T01:49:08.191Z,3.00
2018-07-22T01:52:12.669Z,3.63
2018-07-22T01:55:16.994Z,3.33
2018-07-22T01:58:21.265Z,3.53
2018-07-22T02:01:28.384Z,3.43
2018-07-22T02:04:32.929Z,3.73
2018-07-22T02:07:37.203Z,3.80
2018-07-22T02:10:41.597Z,4.13
2018-07-22T02:13:45.972Z,4.13
2018-07-22T02:16:50.361Z,4.40
2018-07-22T02:19:54.611Z,4.20
2018-07-22T02:22:59.005Z,4.45
2018-07-22T02:26:03.512Z,5.23
2018-07-22T02:29:07.759Z,4.63
2018-07-22T02:32:12.167Z,5.60
2018-07-22T02:35:16.650Z,5.77
2018-07-22T02:38:21.124Z,5.95
2018-07-22T02:41:25.542Z,5.00
2018-07-22T02:44:30.070Z,5.67
2018-07-22T02:47:34.390Z,6.20
2018-07-22T02:50:39.188Z,5.97
2018-07-22T02:53:43.449Z,6.37
2018-07-22T02:56:47.711Z,6.80
2018-07-22T02:59:52.176Z,6.90
2018-07-22T03:02:56.438Z,6.43
2018-07-22T03:06:00.702Z,7.47
2018-07-22T03:09:07.204Z,7.47
2018-07-22T03:12:11.616Z,7.47
2018-07-22T03:15:15.964Z,7.37
2018-07-22T03:18:20.257Z,8.03
2018-07-22T03:21:24.978Z,8.27
2018-07-22T03:24:29.242Z,7.50
2018-07-22T03:27:33.525Z,8.17
2018-07-22T03:30:38.004Z,7.30
2018-07-22T03:33:42.526Z,8.50
2018-07-22T03:36:47.162Z,7.73
2018-07-22T03:39:51.915Z,8.70
2018-07-22T03:42:56.175Z,9.00
2018-07-22T03:46:00.192Z,10.13
2018-07-22T03:49:04.889Z,8.33
2018-07-22T03:52:09.156Z,10.20
2018-07-22T03:55:13.838Z,9.87
2018-07-22T03:58:18.098Z,10.20
2018-07-22T04:01:22.390Z,9.83
2018-07-22T04:04:27.065Z,9.30
2018-07-22T04:07:31.401Z,9.40
2018-07-22T04:10:35.717Z,10.00
2018-07-22T04:13:40.033Z,9.50
2018-07-22T04:16:44.673Z,10.80
2018-07-22T04:19:49.012Z,10.53
2018-07-22T04:22:53.380Z,10.90
2018-07-22T04:25:58.310Z,11.10
2018-07-22T04:29:02.635Z,10.57
2018-07-22T04:32:06.995Z,11.30
2018-07-22T04:35:11.993Z,11.53
2018-07-22T04:38:16.528Z,11.33
2018-07-22T04:41:20.801Z,11.80
2018-07-22T04:44:25.131Z,12.00
2018-07-22T04:47:29.906Z,12.73
2018-07-22T04:50:34.218Z,13.80
2018-07-22T04:53:38.344Z,13.37
2018-07-22T04:56:42.384Z,12.20
2018-07-22T04:59:46.882Z,12.30
2018-07-22T05:02:51.195Z,13.73
2018-07-22T05:05:56.367Z,12.53
2018-07-22T05:09:00.654Z,12.30
2018-07-22T05:12:05.427Z,12.50
2018-07-22T05:15:09.720Z,12.43
2018-07-22T05:18:14.241Z,12.30
2018-07-22T05:21:19.198Z,11.83
2018-07-22T05:24:23.475Z,10.50
2018-07-22T05:27:27.769Z,11.53
2018-07-22T05:30:32.230Z,11.77
2018-07-22T05:33:36.528Z,11.83
2018-07-22T05:36:41.004Z,11.83
2018-07-22T05:39:45.582Z,10.73
2018-07-22T05:42:49.964Z,10.53
2018-07-22T05:45:54.452Z,11.70
2018-07-22T05:48:59.224Z,12.17
2018-07-22T05:52:03.726Z,11.07
2018-07-22T05:55:08.084Z,10.23
2018-07-22T05:58:12.394Z,10.33
2018-07-22T06:01:16.774Z,9.80
2018-07-22T06:04:21.201Z,9.67
2018-07-22T06:07:25.220Z,9.63
2018-07-22T06:10:29.613Z,9.47
2018-07-22T06:13:33.960Z,9.97
2018-07-22T06:16:38.432Z,8.80
2018-07-22T06:19:42.686Z,8.07
2018-07-22T06:22:47.088Z,7.37
2018-07-22T06:25:51.562Z,7.07
2018-07-22T06:28:55.920Z,5.90
2018-07-22T06:32:00.276Z,5.90
2018-07-22T06:35:05.014Z,5.83
2018-07-22T06:38:09.629Z,5.10
2018-07-22T06:41:14.263Z,5.70
2018-07-22T06:44:18.494Z,5.10
2018-07-22T06:47:23.852Z,5.72
2018-07-22T06:50:28.541Z,5.53
2018-07-22T06:53:32.902Z,5.03
2018-07-22T06:56:37.141Z,5.43
2018-07-22T06:59:41.489Z,5.30
2018-07-22T07:02:46.186Z,4.90
2018-07-22T07:05:50.481Z,5.60
2018-07-22T07:08:54.858Z,5.53
2018-07-22T07:11:59.477Z,5.37
2018-07-22T07:15:04.329Z,5.07
2018-07-22T07:18:08.797Z,4.87
2018-07-22T07:21:13.386Z,5.30
2018-07-22T07:24:17.673Z,5.00
2018-07-22T07:27:22.429Z,4.97
2018-07-22T07:30:26.775Z,5.23
2018-07-22T07:33:31.116Z,5.45
2018-07-22T07:36:35.414Z,5.57
2018-07-22T07:39:39.992Z,5.40
2018-07-22T07:42:44.581Z,5.17
2018-07-22T07:45:48.956Z,5.23
2018-07-22T07:48:53.500Z,5.93
2018-07-22T07:51:58.049Z,5.83
2018-07-22T07:55:02.325Z,5.60
2018-07-22T07:58:06.631Z,5.27
2018-07-22T08:01:11.371Z,5.40
2018-07-22T08:04:15.424Z,6.13
2018-07-22T08:07:19.817Z,5.70
2018-07-22T08:10:24.099Z,5.90
2018-07-22T08:13:28.517Z,6.10
2018-07-22T08:16:33.224Z,5.67
2018-07-22T08:19:37.558Z,6.03
2018-07-22T08:22:42.545Z,6.73
2018-07-22T08:25:47.096Z,6.50
2018-07-22T08:29:30.181Z,6.23
2018-07-22T08:32:34.675Z,7.07
2018-07-22T08:35:38.995Z,7.73
2018-07-22T08:38:43.376Z,6.43
2018-07-22T08:41:48.146Z,6.67
2018-07-22T08:44:52.656Z,6.47
2018-07-22T08:47:56.987Z,6.47
2018-07-22T08:51:01.313Z,7.10
2018-07-22T08:54:05.915Z,6.67
2018-07-22T08:57:10.750Z,6.47
2018-07-22T09:00:15.129Z,6.67
2018-07-22T09:03:19.723Z,6.80
2018-07-22T09:06:25.236Z,7.67
2018-07-22T09:09:30.476Z,7.53
2018-07-22T09:12:35.060Z,7.55
2018-07-22T09:15:39.448Z,7.10
2018-07-22T09:18:43.786Z,6.97
2018-07-22T09:21:48.285Z,7.43
2018-07-22T09:24:52.508Z,6.90
2018-07-22T09:27:57.140Z,7.62
2018-07-22T09:31:01.664Z,7.70
2018-07-22T09:34:06.189Z,8.03
2018-07-22T09:37:10.442Z,7.90
2018-07-22T09:40:14.997Z,8.50
2018-07-22T09:43:19.402Z,7.47
2018-07-22T09:46:23.766Z,8.37
2018-07-22T09:49:28.175Z,7.57
2018-07-22T09:52:32.583Z,6.90
2018-07-22T09:55:37.038Z,7.47
2018-07-22T09:58:41.585Z,7.87
2018-07-22T10:01:45.937Z,6.23
2018-07-22T10:04:50.505Z,6.97
2018-07-22T10:07:54.946Z,7.80
2018-07-22T10:10:59.371Z,6.50
2018-07-22T10:14:04.684Z,6.87
2018-07-22T10:17:09.099Z,6.60
2018-07-22T10:20:13.758Z,7.47
2018-07-22T10:23:18.212Z,6.85
2018-07-22T10:26:22.530Z,7.30
2018-07-22T10:29:26.865Z,7.07
2018-07-22T10:32:31.210Z,8.07
2018-07-22T10:35:36.093Z,8.17
2018-07-22T10:38:40.597Z,7.97
2018-07-22T10:41:44.961Z,7.27
2018-07-22T10:44:49.340Z,7.30
2018-07-22T10:47:53.833Z,6.30
2018-07-22T10:50:58.263Z,7.03
2018-07-22T10:54:02.636Z,6.97
2018-07-22T10:57:07.056Z,6.97
2018-07-22T11:00:11.445Z,6.77
2018-07-22T11:03:15.903Z,7.37
2018-07-22T11:06:20.285Z,7.13
2018-07-22T11:09:25.085Z,6.60
2018-07-22T11:12:29.740Z,7.20
2018-07-22T11:15:34.539Z,8.03
2018-07-22T11:18:39.176Z,7.97
2018-07-22T11:21:44.020Z,8.00
2018-07-22T11:24:48.576Z,7.83
2018-07-22T11:27:53.324Z,8.60
2018-07-22T11:30:57.945Z,8.33
2018-07-22T11:34:02.577Z,8.43
2018-07-22T11:37:07.037Z,8.60
2018-07-22T11:40:11.428Z,9.23
2018-07-22T11:43:16.242Z,9.17
2018-07-22T11:46:20.861Z,8.57
2018-07-22T11:49:25.188Z,9.25
2018-07-22T11:52:29.451Z,9.63
2018-07-22T11:55:33.849Z,9.70
2018-07-22T11:58:38.142Z,10.27
2018-07-22T12:01:42.451Z,9.33
2018-07-22T12:04:46.746Z,10.20
2018-07-22T12:07:51.014Z,9.77
2018-07-22T12:10:55.465Z,9.93
2018-07-22T12:13:59.833Z,10.30
2018-07-22T12:17:04.140Z,10.93
2018-07-22T12:20:08.405Z,9.10
2018-07-22T12:23:12.654Z,8.73
2018-07-22T12:26:17.244Z,8.63
2018-07-22T12:29:21.617Z,8.67
2018-07-22T12:32:25.954Z,8.60
2018-07-22T12:35:30.577Z,8.87
2018-07-22T12:38:34.788Z,8.67
2018-07-22T12:41:39.438Z,8.00
2018-07-22T12:44:43.641Z,8.63
2018-07-22T12:47:48.284Z,8.43
2018-07-22T12:50:52.665Z,7.83
2018-07-22T12:53:57.062Z,8.57
2018-07-22T12:57:02.171Z,8.83
2018-07-22T13:00:07.157Z,6.10
2018-07-22T13:03:11.455Z,5.17
2018-07-22T13:06:15.916Z,5.40
2018-07-22T13:09:20.355Z,5.27
2018-07-22T13:12:24.798Z,5.03
2018-07-22T13:15:29.557Z,3.50
2018-07-22T13:18:33.840Z,4.17
2018-07-22T13:21:38.606Z,3.57
2018-07-22T13:24:43.017Z,3.30
2018-07-22T13:27:47.610Z,3.57
2018-07-22T13:30:52.104Z,3.67
2018-07-22T13:33:56.557Z,3.67
2018-07-22T13:37:01.191Z,3.73
2018-07-22T13:40:06.359Z,3.63
2018-07-22T13:43:10.768Z,3.77
2018-07-22T13:46:15.943Z,3.77
2018-07-22T13:49:20.577Z,3.93
2018-07-22T13:52:25.416Z,4.13
2018-07-22T13:55:29.922Z,4.47
2018-07-22T13:58:34.197Z,4.27
2018-07-22T14:01:39.092Z,4.77
2018-07-22T14:04:43.389Z,4.27
2018-07-22T14:07:47.901Z,4.47
2018-07-22T14:10:52.549Z,4.23
2018-07-22T14:13:56.869Z,4.00
2018-07-22T14:17:01.240Z,4.10
2018-07-22T14:20:06.318Z,3.77
2018-07-22T14:23:10.645Z,4.10
2018-07-22T14:26:15.417Z,3.70
2018-07-22T14:29:20.689Z,4.10
2018-07-22T14:32:25.236Z,3.43
2018-07-22T14:35:29.984Z,3.70
2018-07-22T14:38:34.429Z,3.70
2018-07-22T14:41:38.761Z,3.93
2018-07-22T14:44:43.045Z,4.23
2018-07-22T14:47:47.581Z,3.60
2018-07-22T14:50:52.033Z,3.90
2018-07-22T14:53:56.365Z,3.43
2018-07-22T14:57:00.917Z,4.17
2018-07-22T15:00:39.499Z,3.40
2018-07-22T15:03:46.825Z,3.67
2018-07-22T15:06:51.261Z,3.27
2018-07-22T15:09:55.685Z,3.10
2018-07-22T15:13:00.170Z,3.77
2018-07-22T15:16:05.392Z,3.87
2018-07-22T15:19:09.805Z,4.17
2018-07-22T15:22:14.361Z,4.30
2018-07-22T15:25:19.253Z,4.87
2018-07-22T15:28:23.810Z,4.37
2018-07-22T15:31:27.999Z,3.90
2018-07-22T15:34:32.359Z,3.60
2018-07-22T15:37:36.771Z,4.33
2018-07-22T15:40:41.476Z,4.73
2018-07-22T15:43:45.862Z,4.53
2018-07-22T15:46:50.185Z,4.43
2018-07-22T15:49:55.489Z,4.77
2018-07-22T15:53:00.042Z,5.30
2018-07-22T15:56:04.701Z,6.37
2018-07-22T15:59:09.606Z,5.90
2018-07-22T16:02:14.464Z,6.70
2018-07-22T16:05:18.799Z,6.00
2018-07-22T16:08:23.294Z,7.23
2018-07-22T16:11:27.774Z,6.23
2018-07-22T16:14:32.321Z,6.33
2018-07-22T16:17:36.811Z,6.23
2018-07-22T16:20:41.177Z,6.40
2018-07-22T16:23:45.592Z,6.73
2018-07-22T16:26:50.216Z,7.10
2018-07-22T16:29:54.890Z,6.67
2018-07-22T16:33:00.333Z,6.93
2018-07-22T16:36:04.799Z,6.73
2018-07-22T16:39:10.773Z,5.90
2018-07-22T16:42:15.223Z,6.87
2018-07-22T16:45:20.012Z,6.70
2018-07-22T16:48:24.501Z,6.73
2018-07-22T16:51:28.796Z,6.47
2018-07-22T16:54:33.348Z,6.83
2018-07-22T16:57:37.650Z,6.50
2018-07-22T17:00:42.093Z,6.23
2018-07-22T17:03:46.605Z,6.20
2018-07-22T17:06:51.276Z,7.00
2018-07-22T17:10:01.345Z,6.37
2018-07-22T17:13:06.029Z,6.93
2018-07-22T17:16:10.700Z,6.90
2018-07-22T17:19:15.182Z,6.47
2018-07-22T17:22:19.517Z,6.37
2018-07-22T17:25:23.953Z,6.47
2018-07-22T17:28:29.516Z,6.63
2018-07-22T17:31:34.038Z,6.50
2018-07-22T17:34:38.456Z,6.00
2018-07-22T17:37:42.944Z,6.17
2018-07-22T17:40:48.170Z,6.70
2018-07-22T17:43:54.067Z,6.37
2018-07-22T17:46:59.232Z,6.50
2018-07-22T17:50:04.606Z,7.27
2018-07-22T17:53:10.804Z,7.20
2018-07-22T17:56:19.691Z,6.27
2018-07-22T17:59:25.299Z,6.87
2018-07-22T18:02:29.796Z,7.67
2018-07-22T18:05:35.176Z,7.37
2018-07-22T18:08:39.506Z,7.77
2018-07-22T18:11:44.902Z,8.60
2018-07-22T18:14:49.153Z,7.35
2018-07-22T18:17:53.632Z,8.47
2018-07-22T18:20:58.039Z,8.33
2018-07-22T18:24:02.423Z,8.17
2018-07-22T18:27:07.234Z,9.00
2018-07-22T18:30:11.651Z,8.40
2018-07-22T18:33:15.940Z,8.53
2018-07-22T18:36:20.282Z,8.57
2018-07-22T18:39:29.073Z,8.53
2018-07-22T18:42:33.674Z,8.80
2018-07-22T18:45:38.797Z,8.83
2018-07-22T18:48:43.204Z,9.03
2018-07-22T18:51:47.477Z,8.57
2018-07-22T18:54:51.815Z,8.87
2018-07-22T18:57:56.416Z,8.90
2018-07-22T19:01:00.790Z,8.87
2018-07-22T19:04:05.693Z,9.23
2018-07-22T19:07:11.989Z,8.87
2018-07-22T19:10:16.489Z,9.23
2018-07-22T19:13:20.881Z,9.93
2018-07-22T19:16:25.192Z,9.37
2018-07-22T19:19:30.150Z,9.57
2018-07-22T19:22:34.622Z,10.00
2018-07-22T19:25:39.078Z,9.93
2018-07-22T19:28:43.643Z,9.70
2018-07-22T19:31:47.989Z,9.57
2018-07-22T19:34:52.705Z,9.50
2018-07-22T19:37:57.150Z,8.97
2018-07-22T19:41:01.637Z,9.33
2018-07-22T19:44:06.570Z,9.20
2018-07-22T19:47:11.572Z,9.67
2018-07-22T19:50:16.808Z,8.30
2018-07-22T19:53:21.601Z,9.97
2018-07-22T19:56:26.113Z,9.13
2018-07-22T19:59:30.936Z,9.77
2018-07-22T20:02:35.820Z,10.23
2018-07-22T20:05:40.245Z,10.27
2018-07-22T20:08:44.686Z,9.00
2018-07-22T20:11:49.115Z,8.93
2018-07-22T20:14:54.751Z,9.40
2018-07-22T20:17:59.522Z,8.97
2018-07-22T20:21:03.919Z,9.00
2018-07-22T20:24:08.490Z,7.73
2018-07-22T20:27:13.093Z,8.77
2018-07-22T20:30:17.780Z,9.00
2018-07-22T20:33:23.107Z,8.50
2018-07-22T20:36:27.372Z,7.63
2018-07-22T20:39:31.648Z,7.97
2018-07-22T20:42:36.154Z,9.03
2018-07-22T20:45:40.551Z,10.20
2018-07-22T20:48:44.874Z,8.93
2018-07-22T20:51:49.161Z,8.30
2018-07-22T20:54:53.541Z,8.43
2018-07-22T20:57:57.882Z,9.13
2018-07-22T21:01:02.428Z,8.73
2018-07-22T21:04:06.711Z,8.63
2018-07-22T21:07:11.270Z,8.10
2018-07-22T21:10:16.033Z,8.60
2018-07-22T21:13:23.119Z,8.30
2018-07-22T21:16:27.564Z,9.13
2018-07-22T21:19:31.852Z,7.73
2018-07-22T21:22:36.218Z,9.17
2018-07-22T21:25:40.801Z,8.03
2018-07-22T21:28:45.102Z,9.10
2018-07-22T21:31:49.828Z,9.13
2018-07-22T21:34:54.242Z,9.73
2018-07-22T21:37:58.678Z,8.57
2018-07-22T21:41:02.963Z,8.73
2018-07-22T21:44:07.254Z,8.87
2018-07-22T21:47:12.450Z,9.50
2018-07-22T21:50:16.785Z,9.20
2018-07-22T21:53:21.371Z,8.57
2018-07-22T21:56:25.668Z,7.87
2018-07-22T21:59:30.645Z,8.73
2018-07-22T22:02:35.678Z,8.27
2018-07-22T22:05:40.026Z,8.43
2018-07-22T22:08:44.307Z,8.73
2018-07-22T22:11:48.578Z,9.00
2018-07-22T22:14:52.890Z,8.80
2018-07-22T22:18:00.103Z,8.68
2018-07-22T22:21:04.395Z,8.60
2018-07-22T22:24:08.843Z,8.23
2018-07-22T22:27:13.134Z,8.47
2018-07-22T22:30:18.373Z,9.00
2018-07-22T22:33:22.942Z,8.27
2018-07-22T22:36:27.676Z,7.73
2018-07-22T22:39:31.956Z,8.30
2018-07-22T22:42:36.316Z,8.53
2018-07-22T22:45:40.711Z,8.47
2018-07-22T22:48:44.997Z,8.60
2018-07-22T22:51:49.302Z,8.40
2018-07-22T22:54:53.760Z,9.07
2018-07-22T22:58:15.046Z,8.27
2018-07-22T23:01:20.325Z,9.63
2018-07-22T23:04:24.670Z,8.93
2018-07-22T23:07:29.187Z,8.97
2018-07-22T23:10:33.494Z,8.53
2018-07-22T23:13:38.224Z,9.33
2018-07-22T23:16:42.649Z,9.17
2018-07-22T23:19:47.655Z,8.40
2018-07-22T23:22:52.009Z,8.93
2018-07-22T23:25:56.484Z,8.53
2018-07-22T23:29:01.269Z,8.60
2018-07-22T23:32:05.573Z,8.70
2018-07-22T23:35:10.148Z,8.37
2018-07-22T23:38:14.542Z,8.47
2018-07-22T23:41:19.153Z,8.87
2018-07-22T23:44:23.911Z,8.63
2018-07-22T23:47:28.238Z,7.97
2018-07-22T23:50:33.363Z,8.47
2018-07-22T23:53:37.669Z,8.97
2018-07-22T23:56:42.112Z,9.90
2018-07-22T23:59:46.393Z,8.93
